sensor_id;sensor_type;location;lat;lon;timestamp;temperature;humidity
12053;DHT22;6087;48.982;12.064;2023-06-14T00:01:07;18.00;1.00
12053;DHT22;6087;48.982;12.064;2023-06-14T00:03:35;17.90;1.00
12053;DHT22;6087;48.982;12.064;2023-06-14T00:06:03;17.90;1.00
12053;DHT22;6087;48.982;12.064;2023-06-14T00:08:33;17.90;1.00
12053;DHT22;6087;48.982;12.064;2023-06-14T00:11:01;17.80;1.00
12053;DHT22;6087;48.982;12.064;2023-06-14T00:13:28;17.80;1.00
12053;DHT22;6087;48.982;12.064;2023-06-14T00:15:55;17.70;1.00
12053;DHT22;6087;48.982;12.064;2023-06-14T00:18:22;17.70;1.00
12053;DHT22;6087;48.982;12.064;2023-06-14T00:20:52;17.70;1.00
12053;DHT22;6087;48.982;12.064;2023-06-14T00:23:20;17.60;1.00
12053;DHT22;6087;48.982;12.064;2023-06-14T00:25:48;17.50;1.00
12053;DHT22;6087;48.982;12.064;2023-06-14T00:28:15;17.50;1.00
12053;DHT22;6087;48.982;12.064;2023-06-14T00:30:42;17.50;1.00
12053;DHT22;6087;48.982;12.064;2023-06-14T00:33:09;17.40;1.00
12053;DHT22;6087;48.982;12.064;2023-06-14T00:35:36;17.40;1.00
12053;DHT22;6087;48.982;12.064;2023-06-14T00:38:04;17.40;1.00
12053;DHT22;6087;48.982;12.064;2023-06-14T00:40:32;17.40;1.00
12053;DHT22;6087;48.982;12.064;2023-06-14T00:43:00;17.40;1.00
12053;DHT22;6087;48.982;12.064;2023-06-14T00:45:27;17.40;1.00
12053;DHT22;6087;48.982;12.064;2023-06-14T00:47:56;17.40;1.00
12053;DHT22;6087;48.982;12.064;2023-06-14T00:50:27;17.30;1.00
12053;DHT22;6087;48.982;12.064;2023-06-14T00:52:55;17.30;1.00
12053;DHT22;6087;48.982;12.064;2023-06-14T00:55:23;17.30;1.00
12053;DHT22;6087;48.982;12.064;2023-06-14T00:57:51;17.30;1.00
12053;DHT22;6087;48.982;12.064;2023-06-14T01:00:19;17.10;1.00
12053;DHT22;6087;48.982;12.064;2023-06-14T01:02:46;17.00;1.00
12053;DHT22;6087;48.982;12.064;2023-06-14T01:05:13;16.90;1.00
12053;DHT22;6087;48.982;12.064;2023-06-14T01:08:05;16.90;1.00
12053;DHT22;6087;48.982;12.064;2023-06-14T01:10:44;16.90;1.00
12053;DHT22;6087;48.982;12.064;2023-06-14T01:13:21;16.90;1.00
12053;DHT22;6087;48.982;12.064;2023-06-14T01:15:51;16.90;1.00
12053;DHT22;6087;48.982;12.064;2023-06-14T01:18:18;16.90;1.00
12053;DHT22;6087;48.982;12.064;2023-06-14T01:20:46;16.80;1.00
12053;DHT22;6087;48.982;12.064;2023-06-14T01:23:16;16.80;1.00
12053;DHT22;6087;48.982;12.064;2023-06-14T01:25:51;16.80;1.00
12053;DHT22;6087;48.982;12.064;2023-06-14T01:28:20;16.80;1.00
12053;DHT22;6087;48.982;12.064;2023-06-14T01:30:49;16.70;1.00
12053;DHT22;6087;48.982;12.064;2023-06-14T01:33:20;16.70;1.00
12053;DHT22;6087;48.982;12.064;2023-06-14T01:35:50;16.70;1.00
12053;DHT22;6087;48.982;12.064;2023-06-14T01:38:21;16.70;1.00
12053;DHT22;6087;48.982;12.064;2023-06-14T01:40:49;16.60;1.00
12053;DHT22;6087;48.982;12.064;2023-06-14T01:43:17;16.60;1.00
12053;DHT22;6087;48.982;12.064;2023-06-14T01:45:46;16.60;1.00
12053;DHT22;6087;48.982;12.064;2023-06-14T01:48:14;16.60;1.00
12053;DHT22;6087;48.982;12.064;2023-06-14T01:50:42;16.60;1.00
12053;DHT22;6087;48.982;12.064;2023-06-14T01:53:10;16.60;1.00
12053;DHT22;6087;48.982;12.064;2023-06-14T01:55:38;16.50;1.00
12053;DHT22;6087;48.982;12.064;2023-06-14T01:58:09;16.40;1.00
12053;DHT22;6087;48.982;12.064;2023-06-14T02:00:36;16.30;1.00
12053;DHT22;6087;48.982;12.064;2023-06-14T02:03:03;16.20;1.00
12053;DHT22;6087;48.982;12.064;2023-06-14T02:05:33;16.20;1.00
12053;DHT22;6087;48.982;12.064;2023-06-14T02:08:00;16.20;1.00
12053;DHT22;6087;48.982;12.064;2023-06-14T02:10:28;16.20;1.00
12053;DHT22;6087;48.982;12.064;2023-06-14T02:12:56;16.10;1.00
12053;DHT22;6087;48.982;12.064;2023-06-14T02:15:23;16.10;1.00
12053;DHT22;6087;48.982;12.064;2023-06-14T02:17:53;16.00;1.00
12053;DHT22;6087;48.982;12.064;2023-06-14T02:20:20;16.00;1.00
12053;DHT22;6087;48.982;12.064;2023-06-14T02:22:47;16.00;1.00
12053;DHT22;6087;48.982;12.064;2023-06-14T02:25:14;15.90;1.00
12053;DHT22;6087;48.982;12.064;2023-06-14T02:27:47;15.90;1.00
12053;DHT22;6087;48.982;12.064;2023-06-14T02:30:16;15.80;1.00
12053;DHT22;6087;48.982;12.064;2023-06-14T02:32:43;15.90;1.00
12053;DHT22;6087;48.982;12.064;2023-06-14T02:35:10;15.70;1.00
12053;DHT22;6087;48.982;12.064;2023-06-14T02:37:37;15.60;1.00
12053;DHT22;6087;48.982;12.064;2023-06-14T02:40:05;15.60;1.00
12053;DHT22;6087;48.982;12.064;2023-06-14T02:42:34;15.50;1.00
12053;DHT22;6087;48.982;12.064;2023-06-14T02:45:01;15.50;1.00
12053;DHT22;6087;48.982;12.064;2023-06-14T02:47:31;15.40;1.00
12053;DHT22;6087;48.982;12.064;2023-06-14T02:49:58;15.40;1.00
12053;DHT22;6087;48.982;12.064;2023-06-14T02:52:25;15.40;1.00
12053;DHT22;6087;48.982;12.064;2023-06-14T02:54:52;15.50;1.00
12053;DHT22;6087;48.982;12.064;2023-06-14T02:57:20;15.50;1.00
12053;DHT22;6087;48.982;12.064;2023-06-14T02:59:47;15.50;1.00
12053;DHT22;6087;48.982;12.064;2023-06-14T03:02:14;15.50;1.00
12053;DHT22;6087;48.982;12.064;2023-06-14T03:04:43;15.60;1.00
12053;DHT22;6087;48.982;12.064;2023-06-14T03:07:14;15.60;1.00
12053;DHT22;6087;48.982;12.064;2023-06-14T03:09:54;15.60;1.00
12053;DHT22;6087;48.982;12.064;2023-06-14T03:12:30;15.60;1.00
12053;DHT22;6087;48.982;12.064;2023-06-14T03:14:59;15.60;1.00
12053;DHT22;6087;48.982;12.064;2023-06-14T03:17:30;15.40;1.00
12053;DHT22;6087;48.982;12.064;2023-06-14T03:20:00;15.40;1.00
12053;DHT22;6087;48.982;12.064;2023-06-14T03:22:27;15.50;1.00
12053;DHT22;6087;48.982;12.064;2023-06-14T03:24:55;15.30;1.00
12053;DHT22;6087;48.982;12.064;2023-06-14T03:27:22;15.30;1.00
12053;DHT22;6087;48.982;12.064;2023-06-14T03:29:49;15.30;1.00
12053;DHT22;6087;48.982;12.064;2023-06-14T03:32:16;15.30;1.00
12053;DHT22;6087;48.982;12.064;2023-06-14T03:34:43;15.30;1.00
12053;DHT22;6087;48.982;12.064;2023-06-14T03:37:17;15.30;1.00
12053;DHT22;6087;48.982;12.064;2023-06-14T03:39:44;15.30;1.00
12053;DHT22;6087;48.982;12.064;2023-06-14T03:42:15;15.30;1.00
12053;DHT22;6087;48.982;12.064;2023-06-14T03:44:48;15.40;1.00
12053;DHT22;6087;48.982;12.064;2023-06-14T03:47:18;15.40;1.00
12053;DHT22;6087;48.982;12.064;2023-06-14T03:49:45;15.50;1.00
12053;DHT22;6087;48.982;12.064;2023-06-14T03:52:19;15.50;1.00
12053;DHT22;6087;48.982;12.064;2023-06-14T03:54:47;15.50;1.00
12053;DHT22;6087;48.982;12.064;2023-06-14T03:57:15;15.50;1.00
12053;DHT22;6087;48.982;12.064;2023-06-14T03:59:42;15.60;1.00
12053;DHT22;6087;48.982;12.064;2023-06-14T04:02:09;15.60;1.00
12053;DHT22;6087;48.982;12.064;2023-06-14T04:04:39;15.60;1.00
12053;DHT22;6087;48.982;12.064;2023-06-14T04:07:09;15.50;1.00
12053;DHT22;6087;48.982;12.064;2023-06-14T04:09:39;15.50;1.00
12053;DHT22;6087;48.982;12.064;2023-06-14T04:12:07;15.40;1.00
12053;DHT22;6087;48.982;12.064;2023-06-14T04:14:34;15.30;1.00
12053;DHT22;6087;48.982;12.064;2023-06-14T04:17:02;15.30;1.00
12053;DHT22;6087;48.982;12.064;2023-06-14T04:19:32;15.30;1.00
12053;DHT22;6087;48.982;12.064;2023-06-14T04:22:00;15.30;1.00
12053;DHT22;6087;48.982;12.064;2023-06-14T04:24:28;15.30;1.00
12053;DHT22;6087;48.982;12.064;2023-06-14T04:26:59;15.30;1.00
12053;DHT22;6087;48.982;12.064;2023-06-14T04:29:26;15.30;1.00
12053;DHT22;6087;48.982;12.064;2023-06-14T04:31:55;15.30;1.00
12053;DHT22;6087;48.982;12.064;2023-06-14T04:34:28;15.40;1.00
12053;DHT22;6087;48.982;12.064;2023-06-14T04:36:59;15.40;1.00
12053;DHT22;6087;48.982;12.064;2023-06-14T04:39:27;15.40;1.00
12053;DHT22;6087;48.982;12.064;2023-06-14T04:41:54;15.40;1.00
12053;DHT22;6087;48.982;12.064;2023-06-14T04:44:24;15.50;1.00
12053;DHT22;6087;48.982;12.064;2023-06-14T04:46:56;15.50;1.00
12053;DHT22;6087;48.982;12.064;2023-06-14T04:49:24;15.50;1.00
12053;DHT22;6087;48.982;12.064;2023-06-14T04:51:53;15.40;1.00
12053;DHT22;6087;48.982;12.064;2023-06-14T04:54:23;15.40;1.00
12053;DHT22;6087;48.982;12.064;2023-06-14T04:56:51;15.50;1.00
12053;DHT22;6087;48.982;12.064;2023-06-14T04:59:18;15.50;1.00
12053;DHT22;6087;48.982;12.064;2023-06-14T05:01:47;15.60;1.00
12053;DHT22;6087;48.982;12.064;2023-06-14T05:04:14;15.60;1.00
12053;DHT22;6087;48.982;12.064;2023-06-14T05:06:41;15.70;1.00
12053;DHT22;6087;48.982;12.064;2023-06-14T05:09:14;15.80;1.00
12053;DHT22;6087;48.982;12.064;2023-06-14T05:11:41;15.80;1.00
12053;DHT22;6087;48.982;12.064;2023-06-14T05:14:10;15.90;1.00
12053;DHT22;6087;48.982;12.064;2023-06-14T05:16:37;15.90;1.00
12053;DHT22;6087;48.982;12.064;2023-06-14T05:19:06;16.00;1.00
12053;DHT22;6087;48.982;12.064;2023-06-14T05:21:36;16.00;1.00
12053;DHT22;6087;48.982;12.064;2023-06-14T05:24:04;16.10;1.00
12053;DHT22;6087;48.982;12.064;2023-06-14T05:26:31;16.20;1.00
12053;DHT22;6087;48.982;12.064;2023-06-14T05:28:59;16.20;1.00
12053;DHT22;6087;48.982;12.064;2023-06-14T05:31:27;16.30;1.00
12053;DHT22;6087;48.982;12.064;2023-06-14T05:33:54;16.30;1.00
12053;DHT22;6087;48.982;12.064;2023-06-14T05:36:23;16.30;1.00
12053;DHT22;6087;48.982;12.064;2023-06-14T05:38:50;16.40;1.00
12053;DHT22;6087;48.982;12.064;2023-06-14T05:41:23;16.40;1.00
12053;DHT22;6087;48.982;12.064;2023-06-14T05:43:51;16.40;1.00
12053;DHT22;6087;48.982;12.064;2023-06-14T05:46:18;16.50;1.00
12053;DHT22;6087;48.982;12.064;2023-06-14T05:48:47;16.50;1.00
12053;DHT22;6087;48.982;12.064;2023-06-14T05:51:15;16.60;1.00
12053;DHT22;6087;48.982;12.064;2023-06-14T05:53:46;16.60;1.00
12053;DHT22;6087;48.982;12.064;2023-06-14T05:56:13;16.60;1.00
12053;DHT22;6087;48.982;12.064;2023-06-14T05:58:41;16.70;1.00
12053;DHT22;6087;48.982;12.064;2023-06-14T06:01:08;16.70;1.00
12053;DHT22;6087;48.982;12.064;2023-06-14T06:03:35;16.80;1.00
12053;DHT22;6087;48.982;12.064;2023-06-14T06:06:02;16.80;1.00
12053;DHT22;6087;48.982;12.064;2023-06-14T06:08:29;16.80;1.00
12053;DHT22;6087;48.982;12.064;2023-06-14T06:10:58;16.90;1.00
12053;DHT22;6087;48.982;12.064;2023-06-14T06:13:26;16.90;1.00
12053;DHT22;6087;48.982;12.064;2023-06-14T06:15:53;16.90;1.00
12053;DHT22;6087;48.982;12.064;2023-06-14T06:18:20;17.00;1.00
12053;DHT22;6087;48.982;12.064;2023-06-14T06:20:47;17.10;1.00
12053;DHT22;6087;48.982;12.064;2023-06-14T06:23:14;17.20;1.00
12053;DHT22;6087;48.982;12.064;2023-06-14T06:25:43;17.20;1.00
12053;DHT22;6087;48.982;12.064;2023-06-14T06:28:12;17.30;1.00
12053;DHT22;6087;48.982;12.064;2023-06-14T06:30:39;17.30;1.00
12053;DHT22;6087;48.982;12.064;2023-06-14T06:33:06;17.30;1.00
12053;DHT22;6087;48.982;12.064;2023-06-14T06:35:33;17.40;1.00
12053;DHT22;6087;48.982;12.064;2023-06-14T06:38:00;17.40;1.00
12053;DHT22;6087;48.982;12.064;2023-06-14T06:40:27;17.50;1.00
12053;DHT22;6087;48.982;12.064;2023-06-14T06:42:54;17.50;1.00
12053;DHT22;6087;48.982;12.064;2023-06-14T06:45:23;17.60;1.00
12053;DHT22;6087;48.982;12.064;2023-06-14T06:47:50;17.60;1.00
12053;DHT22;6087;48.982;12.064;2023-06-14T06:50:20;17.70;1.00
12053;DHT22;6087;48.982;12.064;2023-06-14T06:52:48;17.70;1.00
12053;DHT22;6087;48.982;12.064;2023-06-14T06:55:16;17.70;1.00
12053;DHT22;6087;48.982;12.064;2023-06-14T06:57:47;17.70;1.00
12053;DHT22;6087;48.982;12.064;2023-06-14T07:00:18;17.70;1.00
12053;DHT22;6087;48.982;12.064;2023-06-14T07:02:47;17.80;1.00
12053;DHT22;6087;48.982;12.064;2023-06-14T07:05:16;17.80;1.00
12053;DHT22;6087;48.982;12.064;2023-06-14T07:07:46;17.90;1.00
12053;DHT22;6087;48.982;12.064;2023-06-14T07:10:13;17.90;1.00
12053;DHT22;6087;48.982;12.064;2023-06-14T07:12:40;18.00;1.00
12053;DHT22;6087;48.982;12.064;2023-06-14T07:15:08;18.10;1.00
12053;DHT22;6087;48.982;12.064;2023-06-14T07:17:38;18.20;1.00
12053;DHT22;6087;48.982;12.064;2023-06-14T07:20:08;18.30;1.00
12053;DHT22;6087;48.982;12.064;2023-06-14T07:22:38;18.40;1.00
12053;DHT22;6087;48.982;12.064;2023-06-14T07:25:07;18.40;1.00
12053;DHT22;6087;48.982;12.064;2023-06-14T07:27:37;18.40;1.00
12053;DHT22;6087;48.982;12.064;2023-06-14T07:30:08;18.40;1.00
12053;DHT22;6087;48.982;12.064;2023-06-14T07:32:38;18.40;1.00
12053;DHT22;6087;48.982;12.064;2023-06-14T07:35:07;18.50;1.00
12053;DHT22;6087;48.982;12.064;2023-06-14T07:37:37;18.50;1.00
12053;DHT22;6087;48.982;12.064;2023-06-14T07:40:05;18.50;1.00
12053;DHT22;6087;48.982;12.064;2023-06-14T07:42:34;18.60;1.00
12053;DHT22;6087;48.982;12.064;2023-06-14T07:45:06;18.60;1.00
12053;DHT22;6087;48.982;12.064;2023-06-14T07:47:36;18.60;1.00
12053;DHT22;6087;48.982;12.064;2023-06-14T07:50:03;18.70;1.00
12053;DHT22;6087;48.982;12.064;2023-06-14T07:52:32;18.70;1.00
12053;DHT22;6087;48.982;12.064;2023-06-14T07:54:59;18.70;1.00
12053;DHT22;6087;48.982;12.064;2023-06-14T07:57:35;18.80;1.00
12053;DHT22;6087;48.982;12.064;2023-06-14T08:00:03;18.80;1.00
12053;DHT22;6087;48.982;12.064;2023-06-14T08:02:31;18.90;1.00
12053;DHT22;6087;48.982;12.064;2023-06-14T08:04:58;18.90;1.00
12053;DHT22;6087;48.982;12.064;2023-06-14T08:07:26;19.00;1.00
12053;DHT22;6087;48.982;12.064;2023-06-14T08:09:54;19.00;1.00
12053;DHT22;6087;48.982;12.064;2023-06-14T08:12:21;19.10;1.00
12053;DHT22;6087;48.982;12.064;2023-06-14T08:14:54;19.10;1.00
12053;DHT22;6087;48.982;12.064;2023-06-14T08:17:21;19.10;1.00
12053;DHT22;6087;48.982;12.064;2023-06-14T08:19:48;19.10;1.00
12053;DHT22;6087;48.982;12.064;2023-06-14T08:22:16;19.10;1.00
12053;DHT22;6087;48.982;12.064;2023-06-14T08:24:46;19.10;1.00
12053;DHT22;6087;48.982;12.064;2023-06-14T08:27:18;19.10;1.00
12053;DHT22;6087;48.982;12.064;2023-06-14T08:29:48;19.10;1.00
12053;DHT22;6087;48.982;12.064;2023-06-14T08:32:15;19.10;1.00
12053;DHT22;6087;48.982;12.064;2023-06-14T08:34:42;19.10;1.00
12053;DHT22;6087;48.982;12.064;2023-06-14T08:37:09;19.10;1.00
12053;DHT22;6087;48.982;12.064;2023-06-14T08:39:37;19.20;1.00
12053;DHT22;6087;48.982;12.064;2023-06-14T08:42:14;19.20;1.00
12053;DHT22;6087;48.982;12.064;2023-06-14T08:44:42;19.20;1.00
12053;DHT22;6087;48.982;12.064;2023-06-14T08:47:10;19.20;1.00
12053;DHT22;6087;48.982;12.064;2023-06-14T08:49:40;19.30;1.00
12053;DHT22;6087;48.982;12.064;2023-06-14T08:52:18;19.30;1.00
12053;DHT22;6087;48.982;12.064;2023-06-14T08:54:49;19.30;1.00
12053;DHT22;6087;48.982;12.064;2023-06-14T08:57:17;19.30;1.00
12053;DHT22;6087;48.982;12.064;2023-06-14T08:59:48;19.30;1.00
12053;DHT22;6087;48.982;12.064;2023-06-14T09:02:18;19.30;1.00
12053;DHT22;6087;48.982;12.064;2023-06-14T09:04:48;19.30;1.00
12053;DHT22;6087;48.982;12.064;2023-06-14T09:07:16;19.40;1.00
12053;DHT22;6087;48.982;12.064;2023-06-14T09:09:44;19.40;1.00
12053;DHT22;6087;48.982;12.064;2023-06-14T09:12:11;19.50;1.00
12053;DHT22;6087;48.982;12.064;2023-06-14T09:14:38;19.50;1.00
12053;DHT22;6087;48.982;12.064;2023-06-14T09:17:13;19.50;1.00
12053;DHT22;6087;48.982;12.064;2023-06-14T09:19:40;19.50;1.00
12053;DHT22;6087;48.982;12.064;2023-06-14T09:22:07;19.60;1.00
12053;DHT22;6087;48.982;12.064;2023-06-14T09:24:37;19.70;1.00
12053;DHT22;6087;48.982;12.064;2023-06-14T09:27:05;19.70;1.00
12053;DHT22;6087;48.982;12.064;2023-06-14T09:29:32;19.70;1.00
12053;DHT22;6087;48.982;12.064;2023-06-14T09:31:59;19.80;1.00
12053;DHT22;6087;48.982;12.064;2023-06-14T09:34:28;19.80;1.00
12053;DHT22;6087;48.982;12.064;2023-06-14T09:36:55;19.80;1.00
12053;DHT22;6087;48.982;12.064;2023-06-14T09:39:22;19.90;1.00
12053;DHT22;6087;48.982;12.064;2023-06-14T09:41:50;19.90;1.00
12053;DHT22;6087;48.982;12.064;2023-06-14T09:44:18;20.00;1.00
12053;DHT22;6087;48.982;12.064;2023-06-14T09:46:46;20.00;1.00
12053;DHT22;6087;48.982;12.064;2023-06-14T09:49:14;20.10;1.00
12053;DHT22;6087;48.982;12.064;2023-06-14T09:51:45;20.10;1.00
12053;DHT22;6087;48.982;12.064;2023-06-14T09:54:22;20.10;1.00
12053;DHT22;6087;48.982;12.064;2023-06-14T09:56:51;20.10;1.00
12053;DHT22;6087;48.982;12.064;2023-06-14T09:59:21;20.10;1.00
12053;DHT22;6087;48.982;12.064;2023-06-14T10:01:55;20.10;1.00
12053;DHT22;6087;48.982;12.064;2023-06-14T10:04:24;20.20;1.00
12053;DHT22;6087;48.982;12.064;2023-06-14T10:06:53;20.20;1.00
12053;DHT22;6087;48.982;12.064;2023-06-14T10:09:21;20.20;1.00
12053;DHT22;6087;48.982;12.064;2023-06-14T10:11:49;20.20;1.00
12053;DHT22;6087;48.982;12.064;2023-06-14T10:14:17;20.20;1.00
12053;DHT22;6087;48.982;12.064;2023-06-14T10:16:50;20.20;1.00
12053;DHT22;6087;48.982;12.064;2023-06-14T10:19:24;20.30;1.00
12053;DHT22;6087;48.982;12.064;2023-06-14T10:21:58;20.40;1.00
12053;DHT22;6087;48.982;12.064;2023-06-14T10:24:30;20.40;1.00
12053;DHT22;6087;48.982;12.064;2023-06-14T10:26:58;20.40;1.00
12053;DHT22;6087;48.982;12.064;2023-06-14T10:29:26;20.40;1.00
12053;DHT22;6087;48.982;12.064;2023-06-14T10:31:58;20.40;1.00
12053;DHT22;6087;48.982;12.064;2023-06-14T10:34:26;20.50;1.00
12053;DHT22;6087;48.982;12.064;2023-06-14T10:37:13;20.50;1.00
12053;DHT22;6087;48.982;12.064;2023-06-14T10:39:41;20.50;1.00
12053;DHT22;6087;48.982;12.064;2023-06-14T10:42:10;20.50;1.00
12053;DHT22;6087;48.982;12.064;2023-06-14T10:44:41;20.50;1.00
12053;DHT22;6087;48.982;12.064;2023-06-14T10:49:50;20.60;1.00
12053;DHT22;6087;48.982;12.064;2023-06-14T10:52:22;20.70;1.00
12053;DHT22;6087;48.982;12.064;2023-06-14T10:55:09;20.70;1.00
12053;DHT22;6087;48.982;12.064;2023-06-14T10:57:38;20.80;1.00
12053;DHT22;6087;48.982;12.064;2023-06-14T11:00:07;20.80;1.00
12053;DHT22;6087;48.982;12.064;2023-06-14T11:05:50;20.80;1.00
12053;DHT22;6087;48.982;12.064;2023-06-14T11:08:33;20.90;1.00
12053;DHT22;6087;48.982;12.064;2023-06-14T11:11:07;20.90;1.00
12053;DHT22;6087;48.982;12.064;2023-06-14T11:13:36;20.90;1.00
12053;DHT22;6087;48.982;12.064;2023-06-14T11:16:10;20.90;1.00
12053;DHT22;6087;48.982;12.064;2023-06-14T11:18:37;21.00;1.00
12053;DHT22;6087;48.982;12.064;2023-06-14T11:21:04;21.10;1.00
12053;DHT22;6087;48.982;12.064;2023-06-14T11:23:33;21.10;1.00
12053;DHT22;6087;48.982;12.064;2023-06-14T11:26:00;21.20;1.00
12053;DHT22;6087;48.982;12.064;2023-06-14T11:28:36;21.40;1.00
12053;DHT22;6087;48.982;12.064;2023-06-14T11:31:04;21.60;1.00
12053;DHT22;6087;48.982;12.064;2023-06-14T11:33:31;21.50;1.00
12053;DHT22;6087;48.982;12.064;2023-06-14T11:35:58;21.50;1.00
12053;DHT22;6087;48.982;12.064;2023-06-14T11:38:25;21.50;1.00
12053;DHT22;6087;48.982;12.064;2023-06-14T11:40:58;21.60;1.00
12053;DHT22;6087;48.982;12.064;2023-06-14T11:43:26;21.60;1.00
12053;DHT22;6087;48.982;12.064;2023-06-14T11:45:54;21.60;1.00
12053;DHT22;6087;48.982;12.064;2023-06-14T11:48:21;21.60;1.00
12053;DHT22;6087;48.982;12.064;2023-06-14T11:50:50;21.60;1.00
12053;DHT22;6087;48.982;12.064;2023-06-14T11:53:18;21.60;1.00
12053;DHT22;6087;48.982;12.064;2023-06-14T11:55:45;21.60;1.00
12053;DHT22;6087;48.982;12.064;2023-06-14T11:58:14;21.60;1.00
12053;DHT22;6087;48.982;12.064;2023-06-14T12:00:49;21.60;1.00
12053;DHT22;6087;48.982;12.064;2023-06-14T12:03:16;21.60;1.00
12053;DHT22;6087;48.982;12.064;2023-06-14T12:05:43;21.60;1.00
12053;DHT22;6087;48.982;12.064;2023-06-14T12:08:10;21.50;1.00
12053;DHT22;6087;48.982;12.064;2023-06-14T12:10:50;21.50;1.00
12053;DHT22;6087;48.982;12.064;2023-06-14T12:13:19;21.40;1.00
12053;DHT22;6087;48.982;12.064;2023-06-14T12:15:54;21.40;1.00
12053;DHT22;6087;48.982;12.064;2023-06-14T12:18:21;21.40;1.00
12053;DHT22;6087;48.982;12.064;2023-06-14T12:20:59;21.40;1.00
12053;DHT22;6087;48.982;12.064;2023-06-14T12:23:39;21.50;1.00
12053;DHT22;6087;48.982;12.064;2023-06-14T12:26:06;21.50;1.00
12053;DHT22;6087;48.982;12.064;2023-06-14T12:28:34;21.50;1.00
12053;DHT22;6087;48.982;12.064;2023-06-14T12:31:01;21.50;1.00
12053;DHT22;6087;48.982;12.064;2023-06-14T12:33:29;21.40;1.00
12053;DHT22;6087;48.982;12.064;2023-06-14T12:35:56;21.30;1.00
12053;DHT22;6087;48.982;12.064;2023-06-14T12:38:24;21.20;1.00
12053;DHT22;6087;48.982;12.064;2023-06-14T12:40:51;21.20;1.00
12053;DHT22;6087;48.982;12.064;2023-06-14T12:43:18;21.20;1.00
12053;DHT22;6087;48.982;12.064;2023-06-14T12:45:47;21.10;1.00
12053;DHT22;6087;48.982;12.064;2023-06-14T12:48:14;21.10;1.00
12053;DHT22;6087;48.982;12.064;2023-06-14T12:50:42;21.20;1.00
12053;DHT22;6087;48.982;12.064;2023-06-14T12:53:09;21.10;1.00
12053;DHT22;6087;48.982;12.064;2023-06-14T12:55:36;21.00;1.00
12053;DHT22;6087;48.982;12.064;2023-06-14T12:58:03;21.00;1.00
12053;DHT22;6087;48.982;12.064;2023-06-14T13:00:30;21.10;1.00
12053;DHT22;6087;48.982;12.064;2023-06-14T13:02:59;21.00;1.00
12053;DHT22;6087;48.982;12.064;2023-06-14T13:05:26;21.00;1.00
12053;DHT22;6087;48.982;12.064;2023-06-14T13:07:55;21.00;1.00
12053;DHT22;6087;48.982;12.064;2023-06-14T13:10:22;21.10;1.00
12053;DHT22;6087;48.982;12.064;2023-06-14T13:12:49;21.20;1.00
12053;DHT22;6087;48.982;12.064;2023-06-14T13:15:19;21.10;1.00
12053;DHT22;6087;48.982;12.064;2023-06-14T13:17:48;21.20;1.00
12053;DHT22;6087;48.982;12.064;2023-06-14T13:20:17;21.20;1.00
12053;DHT22;6087;48.982;12.064;2023-06-14T13:22:44;21.30;1.00
12053;DHT22;6087;48.982;12.064;2023-06-14T13:25:14;21.40;1.00
12053;DHT22;6087;48.982;12.064;2023-06-14T13:27:42;21.50;1.00
12053;DHT22;6087;48.982;12.064;2023-06-14T13:30:12;21.70;1.00
12053;DHT22;6087;48.982;12.064;2023-06-14T13:32:42;21.80;1.00
12053;DHT22;6087;48.982;12.064;2023-06-14T13:35:09;21.90;1.00
12053;DHT22;6087;48.982;12.064;2023-06-14T13:37:37;22.00;1.00
12053;DHT22;6087;48.982;12.064;2023-06-14T13:40:06;22.00;1.00
12053;DHT22;6087;48.982;12.064;2023-06-14T13:42:33;22.00;1.00
12053;DHT22;6087;48.982;12.064;2023-06-14T13:45:01;22.10;1.00
12053;DHT22;6087;48.982;12.064;2023-06-14T13:47:28;22.00;1.00
12053;DHT22;6087;48.982;12.064;2023-06-14T13:49:55;22.00;1.00
12053;DHT22;6087;48.982;12.064;2023-06-14T13:52:22;22.10;1.00
12053;DHT22;6087;48.982;12.064;2023-06-14T13:54:51;22.10;1.00
12053;DHT22;6087;48.982;12.064;2023-06-14T13:57:18;22.10;1.00
12053;DHT22;6087;48.982;12.064;2023-06-14T13:59:45;22.10;1.00
12053;DHT22;6087;48.982;12.064;2023-06-14T14:02:12;22.20;1.00
12053;DHT22;6087;48.982;12.064;2023-06-14T14:04:40;22.30;1.00
12053;DHT22;6087;48.982;12.064;2023-06-14T14:07:07;22.40;1.00
12053;DHT22;6087;48.982;12.064;2023-06-14T14:09:35;22.60;1.00
12053;DHT22;6087;48.982;12.064;2023-06-14T14:12:05;22.80;1.00
12053;DHT22;6087;48.982;12.064;2023-06-14T14:14:32;23.00;1.00
12053;DHT22;6087;48.982;12.064;2023-06-14T14:16:59;22.90;1.00
12053;DHT22;6087;48.982;12.064;2023-06-14T14:19:26;22.80;1.00
12053;DHT22;6087;48.982;12.064;2023-06-14T14:21:53;22.80;1.00
12053;DHT22;6087;48.982;12.064;2023-06-14T14:24:20;22.70;1.00
12053;DHT22;6087;48.982;12.064;2023-06-14T14:26:47;22.70;1.00
12053;DHT22;6087;48.982;12.064;2023-06-14T14:29:17;22.50;1.00
12053;DHT22;6087;48.982;12.064;2023-06-14T14:31:44;22.50;1.00
12053;DHT22;6087;48.982;12.064;2023-06-14T14:34:18;22.40;1.00
12053;DHT22;6087;48.982;12.064;2023-06-14T14:36:45;22.30;1.00
12053;DHT22;6087;48.982;12.064;2023-06-14T14:39:12;22.30;1.00
12053;DHT22;6087;48.982;12.064;2023-06-14T14:41:39;22.20;1.00
12053;DHT22;6087;48.982;12.064;2023-06-14T14:44:06;22.10;1.00
12053;DHT22;6087;48.982;12.064;2023-06-14T14:46:37;22.00;1.00
12053;DHT22;6087;48.982;12.064;2023-06-14T14:49:04;22.00;1.00
12053;DHT22;6087;48.982;12.064;2023-06-14T14:51:31;21.90;1.00
12053;DHT22;6087;48.982;12.064;2023-06-14T14:53:58;21.90;1.00
12053;DHT22;6087;48.982;12.064;2023-06-14T14:56:25;21.80;1.00
12053;DHT22;6087;48.982;12.064;2023-06-14T14:58:52;21.90;1.00
12053;DHT22;6087;48.982;12.064;2023-06-14T15:01:20;21.90;1.00
12053;DHT22;6087;48.982;12.064;2023-06-14T15:03:48;21.90;1.00
12053;DHT22;6087;48.982;12.064;2023-06-14T15:06:15;21.90;1.00
12053;DHT22;6087;48.982;12.064;2023-06-14T15:08:43;21.90;1.00
12053;DHT22;6087;48.982;12.064;2023-06-14T15:11:10;22.00;1.00
12053;DHT22;6087;48.982;12.064;2023-06-14T15:13:37;21.90;1.00
12053;DHT22;6087;48.982;12.064;2023-06-14T15:16:04;22.00;1.00
12053;DHT22;6087;48.982;12.064;2023-06-14T15:18:31;22.00;1.00
12053;DHT22;6087;48.982;12.064;2023-06-14T15:21:00;22.00;1.00
12053;DHT22;6087;48.982;12.064;2023-06-14T15:23:27;22.00;1.00
12053;DHT22;6087;48.982;12.064;2023-06-14T15:25:54;22.00;1.00
12053;DHT22;6087;48.982;12.064;2023-06-14T15:28:21;22.10;1.00
12053;DHT22;6087;48.982;12.064;2023-06-14T15:30:49;22.00;1.00
12053;DHT22;6087;48.982;12.064;2023-06-14T15:33:17;22.00;1.00
12053;DHT22;6087;48.982;12.064;2023-06-14T15:35:44;22.10;1.00
12053;DHT22;6087;48.982;12.064;2023-06-14T15:38:12;22.10;1.00
12053;DHT22;6087;48.982;12.064;2023-06-14T15:40:39;22.10;1.00
12053;DHT22;6087;48.982;12.064;2023-06-14T15:43:06;22.10;1.00
12053;DHT22;6087;48.982;12.064;2023-06-14T15:45:33;22.10;1.00
12053;DHT22;6087;48.982;12.064;2023-06-14T15:48:03;22.10;1.00
12053;DHT22;6087;48.982;12.064;2023-06-14T15:50:30;22.10;1.00
12053;DHT22;6087;48.982;12.064;2023-06-14T15:52:57;22.10;1.00
12053;DHT22;6087;48.982;12.064;2023-06-14T15:55:25;22.00;1.00
12053;DHT22;6087;48.982;12.064;2023-06-14T15:57:52;22.00;1.00
12053;DHT22;6087;48.982;12.064;2023-06-14T16:00:20;22.00;1.00